createdAt,value
2023-02-22T00:00:22.762Z,99723.22
2023-02-22T00:02:51.030Z,99768.41
2023-02-22T00:05:20.051Z,99768.41
2023-02-22T00:07:49.690Z,99772.78
2023-02-22T00:10:20.415Z,99763.22
2023-02-22T00:12:48.970Z,99775.41
2023-02-22T00:15:17.218Z,99760.63
2023-02-22T00:17:44.914Z,99767.59
2023-02-22T00:20:14.055Z,99767.59
2023-02-22T00:22:42.354Z,99768.47
2023-02-22T00:25:11.794Z,99751.06
2023-02-22T00:30:19.012Z,99757.13
2023-02-22T00:32:47.062Z,99755.38
2023-02-22T00:35:14.922Z,99730.16
2023-02-22T00:37:42.860Z,99721.50
2023-02-22T00:40:12.753Z,99739.72
2023-02-22T00:42:40.731Z,99734.53
2023-02-22T00:45:10.235Z,99741.44
2023-02-22T00:47:37.987Z,99683.28
2023-02-22T00:50:06.500Z,99679.78
2023-02-22T00:52:36.017Z,99684.97
2023-02-22T00:55:05.969Z,99744.13
2023-02-22T00:57:35.609Z,99729.34
2023-02-22T01:00:11.869Z,99731.94
2023-02-22T01:02:39.800Z,99730.22
2023-02-22T01:05:09.042Z,99717.19
2023-02-22T01:07:36.837Z,99722.41
2023-02-22T01:10:04.989Z,99633.75
2023-02-22T01:12:33.117Z,99701.56
2023-02-22T01:15:03.823Z,99688.50
2023-02-22T01:17:32.687Z,99684.16
2023-02-22T01:20:00.609Z,99684.16
2023-02-22T01:22:28.496Z,99717.22
2023-02-22T01:24:56.457Z,99711.97
2023-02-22T01:27:24.167Z,99708.50
2023-02-22T01:29:51.904Z,99689.38
2023-02-22T01:32:21.306Z,99708.50
2023-02-22T01:34:49.073Z,99683.28
2023-02-22T01:37:17.029Z,99695.47
2023-02-22T01:39:44.744Z,99697.22
2023-02-22T01:42:13.603Z,99688.50
2023-02-22T01:44:41.524Z,99681.56
2023-02-22T01:47:14.349Z,99684.19
2023-02-22T01:49:45.221Z,99697.25
2023-02-22T01:52:15.399Z,99673.72
2023-02-22T01:54:45.478Z,99655.47
2023-02-22T01:57:15.984Z,99663.31
2023-02-22T01:59:44.726Z,99672.88
2023-02-22T02:02:13.071Z,99662.44
2023-02-22T02:04:42.654Z,99603.34
2023-02-22T02:07:14.163Z,99612.03
2023-02-22T02:09:45.622Z,99680.66
2023-02-22T02:12:13.879Z,99673.72
2023-02-22T02:14:42.037Z,99624.16
2023-02-22T02:17:10.323Z,99668.50
2023-02-22T02:19:42.887Z,99665.03
2023-02-22T02:22:31.036Z,99663.28
2023-02-22T02:25:44.401Z,99666.78
2023-02-22T02:28:56.523Z,99659.84
2023-02-22T02:31:57.615Z,99648.50
2023-02-22T02:34:29.080Z,99610.22
2023-02-22T02:36:59.084Z,99634.56
2023-02-22T02:39:28.425Z,99628.53
2023-02-22T02:41:56.407Z,99648.50
2023-02-22T02:44:26.313Z,99592.88
2023-02-22T02:46:57.606Z,99638.97
2023-02-22T02:49:28.693Z,99642.41
2023-02-22T02:51:56.977Z,99645.00
2023-02-22T02:54:24.732Z,99583.31
2023-02-22T02:56:52.619Z,99635.44
2023-02-22T02:59:25.539Z,99656.28
2023-02-22T03:02:00.593Z,99627.63
2023-02-22T03:05:00.089Z,99581.56
2023-02-22T03:07:48.078Z,99631.13
2023-02-22T03:10:26.264Z,99610.22
2023-02-22T03:12:59.763Z,99625.88
2023-02-22T03:15:36.254Z,99593.72
2023-02-22T03:18:06.714Z,99580.69
2023-02-22T03:20:44.327Z,99623.28
2023-02-22T03:23:14.709Z,99686.63
2023-02-22T03:25:44.844Z,99575.47
2023-02-22T03:28:15.153Z,99597.19
2023-02-22T03:30:45.252Z,99578.94
2023-02-22T03:33:20.383Z,99621.50
2023-02-22T03:35:56.784Z,99609.34
2023-02-22T03:38:25.393Z,99586.69
2023-02-22T03:40:54.399Z,99592.81
2023-02-22T03:43:24.944Z,99611.03
2023-02-22T03:45:52.998Z,99563.25
2023-02-22T03:48:22.799Z,99608.41
2023-02-22T03:50:52.055Z,99588.41
2023-02-22T03:53:20.079Z,99610.16
2023-02-22T03:55:48.007Z,99599.72
2023-02-22T03:58:15.852Z,99556.25
2023-02-22T04:00:44.522Z,99593.66
2023-02-22T04:03:12.659Z,99570.13
2023-02-22T04:05:40.626Z,99596.22
2023-02-22T04:08:09.761Z,99597.97
2023-02-22T04:10:37.906Z,99578.81
2023-02-22T04:13:07.002Z,99580.56
2023-02-22T04:15:34.692Z,99603.16
2023-02-22T04:18:02.580Z,99597.94
2023-02-22T04:20:31.834Z,99597.06
2023-02-22T04:22:59.717Z,99597.09
2023-02-22T04:25:28.814Z,99593.59
2023-02-22T04:27:56.510Z,99601.41
2023-02-22T04:30:24.349Z,99597.94
2023-02-22T04:32:52.458Z,99600.53
2023-02-22T04:35:20.343Z,99584.06
2023-02-22T04:37:48.068Z,99590.13
2023-02-22T04:40:19.434Z,99591.91
2023-02-22T04:42:48.655Z,99574.50
2023-02-22T04:45:16.409Z,99567.50
2023-02-22T04:47:44.243Z,99584.09
2023-02-22T04:50:12.443Z,99584.94
2023-02-22T04:52:40.151Z,99579.75
2023-02-22T04:55:08.371Z,99588.44
2023-02-22T04:57:36.136Z,99133.41
2023-02-22T05:00:05.859Z,99576.28
2023-02-22T05:02:33.641Z,99556.28
2023-02-22T05:05:01.708Z,99581.47
2023-02-22T05:07:29.983Z,99505.88
2023-02-22T05:09:57.864Z,99513.72
2023-02-22T05:12:28.010Z,99536.28
2023-02-22T05:14:56.453Z,99573.69
2023-02-22T05:17:25.551Z,99578.88
2023-02-22T05:19:56.367Z,99540.63
2023-02-22T05:22:27.798Z,99506.69
2023-02-22T05:24:56.858Z,99569.34
2023-02-22T05:27:24.798Z,99552.84
2023-02-22T05:29:59.002Z,99570.22
2023-02-22T05:32:28.601Z,99575.41
2023-02-22T05:34:56.478Z,99572.84
2023-02-22T05:37:24.223Z,99531.97
2023-02-22T05:39:52.144Z,99567.63
2023-02-22T05:42:26.638Z,99418.19
2023-02-22T05:44:54.943Z,99560.69
2023-02-22T05:47:22.707Z,99567.66
2023-02-22T05:49:53.795Z,99562.44
2023-02-22T05:52:22.698Z,99525.09
2023-02-22T05:54:50.775Z,99558.09
2023-02-22T05:57:18.563Z,99496.41
2023-02-22T05:59:46.304Z,99552.91
2023-02-22T06:02:14.124Z,99493.81
2023-02-22T06:04:42.105Z,99546.81
2023-02-22T06:07:12.482Z,99545.97
2023-02-22T06:09:40.463Z,99495.56
2023-02-22T06:12:10.988Z,99524.22
2023-02-22T06:14:40.976Z,99453.88
2023-02-22T06:17:10.855Z,99545.09
2023-02-22T06:19:38.968Z,99400.03
2023-02-22T06:22:08.116Z,99545.09
2023-02-22T06:24:39.317Z,99542.50
2023-02-22T06:29:45.321Z,99539.88
2023-02-22T06:32:13.154Z,99543.34
2023-02-22T06:34:42.423Z,99542.50
2023-02-22T06:37:10.256Z,99508.63
2023-02-22T06:39:39.640Z,99454.78
2023-02-22T06:42:07.780Z,99564.19
2023-02-22T06:44:35.562Z,99532.06
2023-02-22T06:47:03.221Z,99557.28
2023-02-22T06:49:33.458Z,99539.03
2023-02-22T06:52:01.105Z,99541.66
2023-02-22T06:54:29.115Z,99524.28
2023-02-22T06:56:58.486Z,99526.03
2023-02-22T06:59:28.123Z,99539.06
2023-02-22T07:01:56.022Z,99550.34
2023-02-22T07:04:26.998Z,99539.94
2023-02-22T07:06:54.708Z,99550.38
2023-02-22T07:09:22.551Z,99538.19
2023-02-22T07:11:50.253Z,99555.59
2023-02-22T07:14:19.477Z,99539.94
2023-02-22T07:16:47.238Z,99546.88
2023-02-22T07:19:14.947Z,99545.97
2023-02-22T07:21:42.594Z,99532.03
2023-02-22T07:24:10.368Z,99541.59
2023-02-22T07:26:40.046Z,99548.47
2023-02-22T07:29:07.772Z,99541.41
2023-02-22T07:31:37.919Z,99543.78
2023-02-22T07:34:05.621Z,99544.31
2023-02-22T07:36:33.455Z,99536.97
2023-02-22T07:39:01.140Z,99544.19
2023-02-22T07:41:28.935Z,99530.66
2023-02-22T07:43:56.620Z,99539.81
2023-02-22T07:46:24.320Z,99530.69
2023-02-22T07:48:53.575Z,99536.31
2023-02-22T07:51:21.423Z,99534.75
2023-02-22T07:53:49.726Z,99527.94
2023-02-22T07:56:18.176Z,99528.72
2023-02-22T07:58:45.901Z,99533.25
2023-02-22T08:01:14.299Z,99528.84
2023-02-22T08:03:42.574Z,99519.88
2023-02-22T08:06:11.865Z,99520.16
2023-02-22T08:08:42.749Z,99518.97
2023-02-22T08:11:10.500Z,99512.00
2023-02-22T08:13:38.279Z,99514.34
2023-02-22T08:16:06.436Z,99511.34
2023-02-22T08:18:34.090Z,99515.41
2023-02-22T08:21:01.820Z,99503.72
2023-02-22T08:23:31.633Z,99497.91
2023-02-22T08:26:04.515Z,99501.16
2023-02-22T08:28:32.207Z,99509.44
2023-02-22T08:31:00.028Z,99500.84
2023-02-22T08:33:27.816Z,99501.06
2023-02-22T08:35:56.842Z,99426.53
2023-02-22T08:38:26.594Z,99438.41
2023-02-22T08:40:57.293Z,99496.66
2023-02-22T08:43:25.829Z,99296.69
2023-02-22T08:45:56.882Z,99337.38
2023-02-22T08:48:26.652Z,99418.44
2023-02-22T09:03:00.302Z,99496.28
2023-02-22T09:14:46.193Z,99115.09
2023-02-22T09:17:38.900Z,99235.75
2023-02-22T09:20:18.220Z,99352.66
2023-02-22T09:22:46.234Z,99469.31
2023-02-22T09:25:16.953Z,99456.09
2023-02-22T09:27:51.189Z,99287.00
2023-02-22T09:31:11.185Z,99443.22
2023-02-22T10:26:15.010Z,99434.84
2023-02-22T10:49:11.972Z,99222.34
2023-02-22T11:29:57.925Z,99368.63
2023-02-22T11:51:59.227Z,99012.97
2023-02-22T11:54:40.152Z,99220.75
2023-02-22T11:57:25.509Z,99311.31
2023-02-22T12:00:00.978Z,99335.41
2023-02-22T12:02:34.105Z,99325.28
2023-02-22T12:05:18.632Z,99309.13
2023-02-22T12:07:56.573Z,99256.16
2023-02-22T12:10:30.150Z,99325.28
2023-02-22T12:13:09.644Z,99341.13
2023-02-22T12:15:39.957Z,99326.72
2023-02-22T12:18:10.376Z,99305.97
2023-02-22T12:20:39.908Z,99321.72
2023-02-22T12:23:19.640Z,99325.78
2023-02-22T12:26:00.375Z,99291.31
2023-02-22T12:28:31.745Z,99306.72
2023-02-22T12:31:06.522Z,99317.22
2023-02-22T12:33:42.564Z,99317.53
2023-02-22T12:36:10.647Z,99300.84
2023-02-22T12:38:41.445Z,99281.69
2023-02-22T12:41:17.725Z,99312.94
2023-02-22T12:43:47.327Z,99270.19
2023-02-22T12:46:18.054Z,99250.84
2023-02-22T12:48:48.621Z,99240.84
2023-02-22T12:51:26.085Z,99308.28
2023-02-22T12:53:57.712Z,99268.81
2023-02-22T12:56:27.388Z,99330.91
2023-02-22T12:58:58.773Z,99218.44
2023-02-22T13:01:30.014Z,99312.78
2023-02-22T13:03:57.831Z,99328.16
2023-02-22T13:06:30.723Z,99312.25
2023-02-22T13:09:09.596Z,99166.75
2023-02-22T13:11:40.190Z,99117.81
2023-02-22T13:14:15.629Z,99233.94
2023-02-22T13:16:52.537Z,99314.94
2023-02-22T13:19:28.146Z,99306.16
2023-02-22T13:21:58.273Z,99230.81
2023-02-22T13:24:30.319Z,99255.84
2023-02-22T13:27:00.563Z,99276.97
2023-02-22T13:29:29.755Z,99341.69
2023-02-22T13:32:15.612Z,99239.25
2023-02-22T13:35:02.187Z,99287.38
2023-02-22T13:37:42.414Z,99355.88
2023-02-22T13:40:27.504Z,99209.47
2023-02-22T13:43:11.526Z,99296.41
2023-02-22T13:45:49.594Z,99158.03
2023-02-22T13:48:32.728Z,99172.34
2023-02-22T13:51:12.160Z,99280.81
2023-02-22T13:53:44.640Z,99285.38
2023-02-22T13:56:13.946Z,99295.38
2023-02-22T13:58:49.964Z,99273.19
2023-02-22T14:01:39.971Z,99291.41
2023-02-22T14:04:24.125Z,99190.94
2023-02-22T14:06:53.022Z,99298.00
2023-02-22T14:09:47.977Z,99242.66
2023-02-22T14:16:20.320Z,99300.22
2023-02-22T14:18:50.421Z,99307.59
2023-02-22T14:21:19.303Z,99158.69
2023-02-22T14:23:47.366Z,99033.28
2023-02-22T14:28:53.389Z,99310.81
2023-02-22T14:31:35.627Z,99287.34
2023-02-22T14:34:17.322Z,99299.94
2023-02-22T14:37:14.847Z,99304.31
2023-02-22T14:39:46.056Z,99231.00
2023-02-22T14:42:15.318Z,99275.78
2023-02-22T14:44:45.268Z,99308.88
2023-02-22T14:47:21.254Z,99301.16
2023-02-22T14:49:51.731Z,99296.78
2023-02-22T14:52:22.861Z,99295.22
2023-02-22T14:55:04.590Z,99346.75
2023-02-22T14:57:39.031Z,99200.09
2023-02-22T15:00:19.755Z,99298.41
2023-02-22T15:02:49.474Z,99297.00
2023-02-22T15:05:19.479Z,99300.13
2023-02-22T15:07:55.559Z,99296.09
2023-02-22T15:10:26.477Z,99133.25
2023-02-22T15:13:10.489Z,99308.38
2023-02-22T15:15:40.644Z,99035.63
2023-02-22T15:18:18.020Z,99295.13
2023-02-22T15:20:48.333Z,99334.41
2023-02-22T15:23:21.747Z,99311.75
2023-02-22T15:25:50.039Z,99080.22
2023-02-22T15:28:19.164Z,99181.38
2023-02-22T15:31:13.384Z,99129.09
2023-02-22T15:33:42.926Z,99347.19
2023-02-22T15:36:18.606Z,99304.69
2023-02-22T15:39:13.393Z,98946.16
2023-02-22T15:41:41.224Z,98954.72
2023-02-22T15:44:23.665Z,99288.97
2023-02-22T15:47:11.808Z,99394.81
2023-02-22T15:49:41.783Z,99422.50
2023-02-22T15:55:29.904Z,99059.88
2023-02-22T15:58:03.773Z,99183.25
2023-02-22T16:00:46.201Z,99241.06
2023-02-22T16:03:19.642Z,99182.06
2023-02-22T16:06:33.104Z,99053.88
2023-02-22T16:09:02.860Z,99163.50
2023-02-22T16:15:35.709Z,99320.91
2023-02-22T16:18:49.880Z,99314.34
2023-02-22T16:21:19.259Z,98836.00
2023-02-22T16:23:51.660Z,99197.88
2023-02-22T16:26:26.479Z,99300.50
2023-02-22T16:32:25.295Z,99139.03
2023-02-22T16:34:53.267Z,99247.38
2023-02-22T16:37:23.219Z,99325.94
2023-02-22T16:39:57.622Z,99327.06
2023-02-22T16:42:41.216Z,99261.31
2023-02-22T16:48:14.597Z,99313.50
2023-02-22T16:50:42.809Z,99336.88
2023-02-22T16:53:15.168Z,99172.97
2023-02-22T16:55:45.573Z,98908.34
2023-02-22T16:58:15.397Z,99345.41
2023-02-22T17:00:46.114Z,99445.69
2023-02-22T17:04:18.007Z,99337.94
2023-02-22T17:06:45.829Z,99389.63
2023-02-22T17:09:15.291Z,99226.09
2023-02-22T17:11:43.521Z,99329.63
2023-02-22T17:14:13.232Z,99347.06
2023-02-22T17:16:41.003Z,99355.13
2023-02-22T17:19:16.930Z,99351.00
2023-02-22T17:21:44.749Z,99382.41
2023-02-22T17:24:13.678Z,99199.16
2023-02-22T17:26:53.438Z,99214.91
2023-02-22T17:29:29.128Z,99360.47
2023-02-22T17:31:57.403Z,99066.31
2023-02-22T17:34:28.109Z,99143.44
2023-02-22T17:37:01.495Z,99261.31
2023-02-22T17:39:29.534Z,99345.97
2023-02-22T17:41:58.328Z,99363.19
2023-02-22T17:44:30.631Z,99378.13
2023-02-22T17:47:04.745Z,99183.50
2023-02-22T17:54:54.722Z,99375.28
2023-02-22T17:57:22.522Z,99381.56
2023-02-22T17:59:51.695Z,99360.94
2023-02-22T18:02:19.661Z,99377.34
2023-02-22T18:04:47.483Z,99387.09
2023-02-22T18:07:19.105Z,99382.72
2023-02-22T18:09:46.915Z,99391.63
2023-02-22T18:12:14.626Z,99383.75
2023-02-22T18:14:42.365Z,99377.72
2023-02-22T18:17:11.496Z,99386.44
2023-02-22T18:19:39.419Z,99382.09
2023-02-22T18:22:08.373Z,99382.09
2023-02-22T18:24:36.113Z,99381.25
2023-02-22T18:27:06.533Z,99388.34
2023-02-22T18:29:34.492Z,99358.38
2023-02-22T18:32:02.242Z,99370.25
2023-02-22T18:34:33.002Z,99385.94
2023-02-22T18:37:00.994Z,99383.22
2023-02-22T18:39:31.874Z,99382.47
2023-02-22T18:41:59.756Z,99381.66
2023-02-22T18:44:27.646Z,99367.13
2023-02-22T18:46:55.444Z,99371.53
2023-02-22T18:49:23.623Z,99314.78
2023-02-22T18:51:52.757Z,99381.97
2023-02-22T18:54:20.770Z,99381.13
2023-02-22T18:56:48.471Z,99383.81
2023-02-22T18:59:16.320Z,99385.59
2023-02-22T19:01:49.069Z,99383.06
2023-02-22T19:04:18.265Z,99377.28
2023-02-22T19:06:48.415Z,99390.16
2023-02-22T19:09:17.558Z,99392.00
2023-02-22T19:11:48.235Z,99392.91
2023-02-22T19:14:17.311Z,99388.56
2023-02-22T19:16:46.387Z,99388.63
2023-02-22T19:19:14.814Z,99394.88
2023-02-22T19:21:43.772Z,99377.75
2023-02-22T19:24:11.444Z,99390.78
2023-02-22T19:26:49.444Z,99392.59
2023-02-22T19:29:17.310Z,99399.72
2023-02-22T19:31:47.645Z,99396.25
2023-02-22T19:34:15.533Z,99377.47
2023-02-22T19:36:45.383Z,99357.97
2023-02-22T19:39:13.076Z,99384.66
2023-02-22T19:41:42.517Z,99387.19
2023-02-22T19:44:10.324Z,99406.25
2023-02-22T19:46:38.206Z,99368.66
2023-02-22T19:49:06.146Z,99398.78
2023-02-22T19:51:34.224Z,99408.47
2023-02-22T19:54:03.149Z,99420.91
2023-02-22T19:56:31.296Z,99416.66
2023-02-22T19:59:02.401Z,99417.75
2023-02-22T20:01:32.825Z,99416.94
2023-02-22T20:04:04.270Z,99335.16
2023-02-22T20:06:35.076Z,99395.06
2023-02-22T20:09:02.937Z,99436.66
2023-02-22T20:11:32.947Z,99424.41
2023-02-22T20:14:02.035Z,99421.19
2023-02-22T20:16:30.029Z,99429.13
2023-02-22T20:18:57.900Z,99427.50
2023-02-22T20:21:27.991Z,99433.72
2023-02-22T20:23:57.180Z,99413.84
2023-02-22T20:26:25.820Z,99425.16
2023-02-22T20:28:53.798Z,99426.97
2023-02-22T20:31:23.123Z,99433.97
2023-02-22T20:33:58.215Z,99398.53
2023-02-22T20:36:26.075Z,99423.47
2023-02-22T20:38:54.869Z,99428.97
2023-02-22T20:41:23.999Z,99429.84
2023-02-22T20:43:51.774Z,99423.84
2023-02-22T20:46:19.552Z,99430.00
2023-02-22T20:48:48.578Z,99426.59
2023-02-22T20:51:16.889Z,99432.69
2023-02-22T20:53:45.038Z,99420.66
2023-02-22T20:56:13.553Z,99429.25
2023-02-22T20:58:41.244Z,99428.34
2023-02-22T21:01:11.937Z,99436.31
2023-02-22T21:03:40.700Z,99434.63
2023-02-22T21:06:11.724Z,99440.84
2023-02-22T21:08:39.485Z,99434.75
2023-02-22T21:11:11.400Z,99437.47
2023-02-22T21:13:39.083Z,99414.16
2023-02-22T21:16:07.744Z,99434.84
2023-02-22T21:18:35.462Z,99431.50
2023-02-22T21:21:03.458Z,99443.69
2023-02-22T21:23:32.496Z,99444.59
2023-02-22T21:26:00.233Z,99445.47
2023-02-22T21:28:42.567Z,99440.28
2023-02-22T21:31:15.836Z,99435.97
2023-02-22T21:33:43.686Z,99436.94
2023-02-22T21:36:16.829Z,99428.44
2023-02-22T21:38:46.972Z,99442.41
2023-02-22T21:41:15.309Z,99432.81
2023-02-22T21:43:43.172Z,99439.88
2023-02-22T21:46:12.028Z,99440.00
2023-02-22T21:48:44.431Z,99441.66
2023-02-22T21:51:13.836Z,99439.94
2023-02-22T21:53:50.581Z,99450.47
2023-02-22T21:56:22.051Z,99446.97
2023-02-22T21:58:58.930Z,99445.16
2023-02-22T22:01:28.315Z,99445.16
2023-02-22T22:03:56.479Z,99443.34
2023-02-22T22:06:24.801Z,99445.13
2023-02-22T22:08:54.141Z,99447.78
2023-02-22T22:11:22.073Z,99438.97
2023-02-22T22:13:50.680Z,99438.91
2023-02-22T22:16:20.540Z,99385.53
2023-02-22T22:18:48.334Z,99436.25
2023-02-22T22:21:18.005Z,99442.41
2023-02-22T22:23:47.237Z,99435.34
2023-02-22T22:26:18.342Z,99435.34
2023-02-22T22:28:47.125Z,99438.09
2023-02-22T22:31:17.132Z,99438.91
2023-02-22T22:33:45.544Z,99441.50
2023-02-22T22:36:14.912Z,99443.31
2023-02-22T22:38:43.033Z,99438.06
2023-02-22T22:41:13.163Z,99445.97
2023-02-22T22:43:45.949Z,99440.75
2023-02-22T22:46:14.439Z,99442.50
2023-02-22T22:48:42.356Z,99448.66
2023-02-22T22:51:11.070Z,99437.53
2023-02-22T22:53:42.873Z,99440.97
2023-02-22T22:56:14.227Z,99440.16
2023-02-22T22:58:43.941Z,99419.81
2023-02-22T23:01:18.348Z,99443.81
2023-02-22T23:03:55.219Z,99436.00
2023-02-22T23:06:25.628Z,99443.94
2023-02-22T23:09:01.008Z,99441.31
2023-02-22T23:11:29.702Z,99431.13
2023-02-22T23:14:00.141Z,99441.41
2023-02-22T23:16:28.741Z,99441.38
2023-02-22T23:18:56.522Z,99437.84
2023-02-22T23:21:24.341Z,99434.41
2023-02-22T23:23:53.299Z,99437.16
2023-02-22T23:26:21.018Z,99441.44
2023-02-22T23:28:49.034Z,99438.88
2023-02-22T23:31:18.572Z,99438.88
2023-02-22T23:33:48.237Z,99437.88
2023-02-22T23:36:16.268Z,99436.97
2023-02-22T23:38:44.016Z,99440.47
2023-02-22T23:41:16.375Z,99443.22
2023-02-22T23:43:45.053Z,99445.75
2023-02-22T23:46:13.805Z,99440.47
2023-02-22T23:48:46.594Z,99438.69
2023-02-22T23:51:15.148Z,99439.56
2023-02-22T23:53:45.894Z,99422.31
2023-02-22T23:56:13.742Z,99436.06
2023-02-22T23:58:42.027Z,99446.53
